createdAt,value
2018-06-12T00:00:09.854Z,16.09
2018-06-12T00:05:05.896Z,15.91
2018-06-12T00:10:01.600Z,15.97
2018-06-12T00:14:58.809Z,15.80
2018-06-12T00:19:54.355Z,15.83
2018-06-12T00:24:50.294Z,15.84
2018-06-12T00:29:46.160Z,15.91
2018-06-12T00:34:42.063Z,15.82
2018-06-12T00:39:39.069Z,15.90
2018-06-12T00:44:34.231Z,15.75
2018-06-12T00:49:31.080Z,15.68
2018-06-12T00:54:26.649Z,15.62
2018-06-12T00:59:22.475Z,15.29
2018-06-12T01:04:19.166Z,15.47
2018-06-12T01:09:15.614Z,15.37
2018-06-12T01:14:11.135Z,15.18
2018-06-12T01:19:07.074Z,15.35
2018-06-12T01:24:02.770Z,15.21
2018-06-12T01:28:58.611Z,15.22
2018-06-12T01:33:55.765Z,15.07
2018-06-12T01:38:51.382Z,14.82
2018-06-12T01:43:47.509Z,14.73
2018-06-12T01:48:44.238Z,14.58
2018-06-12T01:53:40.051Z,14.60
2018-06-12T01:58:35.753Z,14.44
2018-06-12T02:03:31.485Z,14.35
2018-06-12T02:08:27.238Z,14.40
2018-06-12T02:13:24.435Z,14.35
2018-06-12T02:18:20.920Z,14.29
2018-06-12T02:23:16.393Z,14.20
2018-06-12T02:28:13.725Z,14.22
2018-06-12T02:33:10.720Z,14.36
2018-06-12T02:38:06.327Z,14.18
2018-06-12T02:43:02.606Z,13.96
2018-06-12T02:47:59.490Z,14.04
2018-06-12T02:52:56.466Z,14.15
2018-06-12T02:57:52.098Z,14.11
2018-06-12T03:02:47.859Z,14.08
2018-06-12T03:07:43.628Z,14.15
2018-06-12T03:12:39.551Z,14.11
2018-06-12T03:17:35.089Z,14.14
2018-06-12T03:22:30.928Z,14.05
2018-06-12T03:27:26.746Z,13.96
2018-06-12T03:32:23.880Z,13.86
2018-06-12T03:37:19.337Z,13.83
2018-06-12T03:42:15.233Z,13.79
2018-06-12T03:47:11.210Z,13.86
2018-06-12T03:52:07.116Z,13.86
2018-06-12T03:57:02.952Z,13.81
2018-06-12T04:02:00.088Z,13.74
2018-06-12T04:06:56.476Z,13.72
2018-06-12T04:11:52.237Z,13.81
2018-06-12T04:16:49.371Z,13.93
2018-06-12T04:21:45.120Z,14.00
2018-06-12T04:26:40.934Z,14.08
2018-06-12T04:31:36.709Z,14.04
2018-06-12T04:36:32.700Z,13.92
2018-06-12T04:41:28.617Z,14.18
2018-06-12T04:46:25.542Z,14.22
2018-06-12T04:51:21.193Z,14.17
2018-06-12T04:56:18.220Z,14.03
2018-06-12T05:01:13.762Z,14.26
2018-06-12T05:06:09.375Z,14.44
2018-06-12T05:11:05.260Z,14.37
2018-06-12T05:16:01.290Z,14.33
2018-06-12T05:20:57.445Z,14.53
2018-06-12T05:25:53.466Z,14.51
2018-06-12T05:30:49.101Z,14.43
2018-06-12T05:35:47.277Z,14.48
2018-06-12T05:40:44.433Z,14.51
2018-06-12T05:45:40.190Z,14.65
2018-06-12T05:50:37.275Z,15.09
2018-06-12T05:55:33.992Z,14.89
2018-06-12T06:00:29.468Z,15.09
2018-06-12T06:05:26.573Z,15.33
2018-06-12T06:10:22.381Z,15.54
2018-06-12T06:15:18.382Z,15.33
2018-06-12T06:20:14.702Z,15.55
2018-06-12T06:25:10.870Z,15.83
2018-06-12T06:30:06.902Z,16.21
2018-06-12T06:35:02.893Z,15.77
2018-06-12T06:39:59.551Z,15.35
2018-06-12T06:44:54.854Z,15.39
2018-06-12T06:49:51.126Z,15.57
2018-06-12T06:54:48.061Z,15.55
2018-06-12T06:59:44.953Z,15.77
2018-06-12T07:04:42.056Z,16.16
2018-06-12T07:09:38.668Z,16.51
2018-06-12T07:14:36.204Z,17.16
2018-06-12T07:19:32.519Z,17.01
2018-06-12T07:24:28.843Z,16.93
2018-06-12T07:29:24.817Z,17.26
2018-06-12T07:34:20.730Z,17.45
2018-06-12T07:39:16.396Z,16.99
2018-06-12T07:44:13.360Z,16.97
2018-06-12T07:49:08.966Z,17.24
2018-06-12T07:54:06.664Z,17.09
2018-06-12T07:59:02.789Z,17.59
2018-06-12T08:04:01.102Z,17.38
2018-06-12T08:08:58.430Z,18.04
2018-06-12T08:13:59.964Z,18.65
2018-06-12T08:18:56.445Z,18.56
2018-06-12T08:23:52.340Z,17.49
2018-06-12T08:28:48.318Z,16.99
2018-06-12T08:33:45.038Z,16.93
2018-06-12T08:38:41.426Z,17.38
2018-06-12T08:43:36.906Z,17.27
2018-06-12T08:48:33.179Z,17.65
2018-06-12T08:53:33.925Z,18.22
2018-06-12T08:58:29.514Z,17.85
2018-06-12T09:03:25.721Z,17.72
2018-06-12T09:08:22.686Z,18.25
2018-06-12T09:13:20.367Z,18.81
2018-06-12T09:18:17.761Z,18.71
2018-06-12T09:23:15.341Z,18.99
2018-06-12T09:28:11.931Z,18.70
2018-06-12T09:33:11.562Z,18.31
2018-06-12T09:38:05.967Z,17.76
2018-06-12T09:43:07.246Z,18.04
2018-06-12T09:48:03.452Z,18.59
2018-06-12T09:53:04.221Z,18.43
2018-06-12T09:58:01.224Z,18.78
2018-06-12T10:02:56.967Z,18.66
2018-06-12T10:07:55.203Z,19.59
2018-06-12T10:12:51.948Z,19.11
2018-06-12T10:17:49.906Z,19.95
2018-06-12T10:22:45.158Z,19.82
2018-06-12T10:27:45.310Z,19.85
2018-06-12T10:32:44.314Z,19.49
2018-06-12T10:37:40.943Z,19.48
2018-06-12T10:42:36.035Z,19.77
2018-06-12T10:47:34.425Z,20.32
2018-06-12T10:52:30.901Z,19.27
2018-06-12T10:57:26.854Z,19.58
2018-06-12T11:02:26.122Z,18.90
2018-06-12T11:07:21.845Z,18.88
2018-06-12T11:12:18.249Z,19.26
2018-06-12T11:17:15.467Z,19.11
2018-06-12T11:22:12.360Z,19.44
2018-06-12T11:27:08.253Z,18.96
2018-06-12T11:32:07.756Z,18.93
2018-06-12T11:37:04.708Z,19.12
2018-06-12T11:42:01.026Z,19.14
2018-06-12T11:46:57.852Z,19.19
2018-06-12T11:51:53.202Z,18.96
2018-06-12T11:56:49.072Z,19.21
2018-06-12T12:01:45.210Z,19.12
2018-06-12T12:06:41.499Z,19.44
2018-06-12T12:11:39.422Z,19.89
2018-06-12T12:16:35.646Z,19.54
2018-06-12T12:21:31.489Z,19.31
2018-06-12T12:26:27.247Z,19.52
2018-06-12T12:31:24.353Z,19.84
2018-06-12T12:36:21.504Z,20.25
2018-06-12T12:41:20.008Z,20.22
2018-06-12T12:46:16.227Z,20.00
2018-06-12T12:51:11.752Z,20.21
2018-06-12T12:56:09.876Z,20.41
2018-06-12T13:01:05.316Z,20.06
2018-06-12T13:06:04.149Z,20.02
2018-06-12T13:10:59.164Z,20.04
2018-06-12T13:15:54.826Z,19.96
2018-06-12T13:20:51.451Z,19.63
2018-06-12T13:25:46.901Z,19.18
2018-06-12T13:30:42.862Z,19.36
2018-06-12T13:35:38.770Z,19.58
2018-06-12T13:40:34.603Z,19.39
2018-06-12T13:45:30.520Z,19.21
2018-06-12T13:50:26.630Z,19.04
2018-06-12T13:55:23.372Z,19.02
2018-06-12T14:00:19.355Z,19.04
2018-06-12T14:05:15.072Z,18.89
2018-06-12T14:10:11.978Z,18.89
2018-06-12T14:15:07.514Z,18.81
2018-06-12T14:20:03.454Z,19.00
2018-06-12T14:25:03.312Z,18.99
2018-06-12T14:29:58.876Z,19.26
2018-06-12T14:34:55.530Z,19.41
2018-06-12T14:39:52.885Z,19.45
2018-06-12T14:44:48.664Z,19.64
2018-06-12T14:49:48.889Z,19.70
2018-06-12T14:54:44.713Z,19.59
2018-06-12T14:59:40.315Z,19.26
2018-06-12T15:04:35.986Z,19.19
2018-06-12T15:09:32.032Z,19.14
2018-06-12T15:14:27.718Z,19.04
2018-06-12T15:19:23.733Z,19.18
2018-06-12T15:24:19.699Z,19.15
2018-06-12T15:29:15.798Z,19.15
2018-06-12T15:34:11.850Z,19.14
2018-06-12T15:39:07.781Z,19.11
2018-06-12T15:44:05.807Z,19.40
2018-06-12T15:49:01.920Z,19.51
2018-06-12T15:53:57.928Z,19.56
2018-06-12T15:58:54.177Z,19.85
2018-06-12T16:03:50.588Z,19.71
2018-06-12T16:08:46.111Z,19.30
2018-06-12T16:13:42.010Z,19.39
2018-06-12T16:18:38.748Z,19.33
2018-06-12T16:23:34.096Z,19.39
2018-06-12T16:28:31.518Z,19.19
2018-06-12T16:33:27.165Z,19.27
2018-06-12T16:38:23.298Z,19.51
2018-06-12T16:43:19.938Z,19.55
2018-06-12T16:48:15.674Z,19.39
2018-06-12T16:53:16.330Z,19.04
2018-06-12T16:58:10.850Z,19.02
2018-06-12T17:03:06.398Z,18.90
2018-06-12T17:08:03.670Z,18.92
2018-06-12T17:12:58.816Z,18.89
2018-06-12T17:17:55.188Z,18.62
2018-06-12T17:22:51.818Z,18.49
2018-06-12T17:27:47.396Z,18.34
2018-06-12T17:32:44.232Z,18.19
2018-06-12T17:37:39.612Z,18.00
2018-06-12T17:42:35.488Z,18.03
2018-06-12T17:47:31.520Z,17.98
2018-06-12T17:52:27.344Z,17.89
2018-06-12T17:57:23.122Z,17.80
2018-06-12T18:02:18.963Z,17.67
2018-06-12T18:07:16.741Z,17.67
2018-06-12T18:12:13.077Z,17.51
2018-06-12T18:17:08.446Z,17.33
2018-06-12T18:22:04.274Z,17.26
2018-06-12T18:27:00.024Z,17.06
2018-06-12T18:31:56.837Z,17.16
2018-06-12T18:36:52.271Z,17.16
2018-06-12T18:41:48.117Z,17.12
2018-06-12T18:46:44.038Z,17.12
2018-06-12T18:51:40.108Z,17.14
2018-06-12T18:56:35.658Z,17.08
2018-06-12T19:01:32.166Z,17.19
2018-06-12T19:06:28.022Z,16.91
2018-06-12T19:11:23.836Z,16.76
2018-06-12T19:16:20.799Z,16.76
2018-06-12T19:21:16.289Z,16.72
2018-06-12T19:26:13.046Z,16.75
2018-06-12T19:31:09.441Z,16.66
2018-06-12T19:36:06.348Z,16.78
2018-06-12T19:41:02.937Z,16.68
2018-06-12T19:45:58.871Z,16.65
2018-06-12T19:50:55.625Z,16.54
2018-06-12T19:55:51.947Z,16.54
2018-06-12T20:00:47.262Z,16.35
2018-06-12T20:05:43.151Z,16.47
2018-06-12T20:10:39.227Z,16.53
2018-06-12T20:15:35.276Z,16.50
2018-06-12T20:20:30.841Z,16.38
2018-06-12T20:25:28.169Z,16.39
2018-06-12T20:30:23.341Z,16.39
2018-06-12T20:35:19.757Z,16.38
2018-06-12T20:40:16.155Z,16.49
2018-06-12T20:45:13.252Z,16.29
2018-06-12T20:50:08.692Z,16.23
2018-06-12T20:55:04.894Z,16.24
2018-06-12T21:00:00.689Z,16.24
2018-06-12T21:04:56.604Z,16.21
2018-06-12T21:09:53.535Z,16.15
2018-06-12T21:14:50.238Z,16.21
2018-06-12T21:19:45.991Z,16.05
2018-06-12T21:24:41.828Z,16.15
2018-06-12T21:29:39.061Z,16.28
2018-06-12T21:34:34.225Z,16.21
2018-06-12T21:39:30.989Z,16.26
2018-06-12T21:44:26.787Z,16.20
2018-06-12T21:49:22.093Z,16.15
2018-06-12T21:54:17.987Z,15.91
2018-06-12T21:59:15.161Z,15.88
2018-06-12T22:04:11.606Z,15.82
2018-06-12T22:09:06.973Z,15.65
2018-06-12T22:14:02.555Z,15.59
2018-06-12T22:18:58.599Z,15.62
2018-06-12T22:23:54.998Z,15.59
2018-06-12T22:28:51.978Z,15.67
2018-06-12T22:33:52.533Z,15.64
2018-06-12T22:38:48.511Z,15.65
2018-06-12T22:43:44.287Z,15.62
2018-06-12T22:48:40.994Z,15.64
2018-06-12T22:53:40.703Z,15.70
2018-06-12T22:58:35.585Z,15.61
2018-06-12T23:03:32.341Z,15.49
2018-06-12T23:08:28.423Z,15.47
2018-06-12T23:13:24.984Z,15.52
2018-06-12T23:18:20.569Z,15.33
2018-06-12T23:23:16.441Z,15.42
2018-06-12T23:28:13.239Z,15.40
2018-06-12T23:33:08.699Z,15.37
2018-06-12T23:38:05.648Z,15.31
2018-06-12T23:43:01.274Z,15.31
2018-06-12T23:47:56.908Z,15.31
2018-06-12T23:52:52.723Z,15.15
2018-06-12T23:57:48.672Z,15.09
